createdAt,value
2023-04-21T00:01:20.411Z,5.78
2023-04-21T00:06:26.143Z,5.77
2023-04-21T00:11:27.246Z,5.72
2023-04-21T00:16:28.366Z,5.67
2023-04-21T00:21:30.182Z,5.62
2023-04-21T00:26:31.352Z,5.58
2023-04-21T00:31:32.814Z,5.49
2023-04-21T00:36:33.930Z,5.37
2023-04-21T00:41:36.274Z,5.22
2023-04-21T00:46:37.987Z,5.10
2023-04-21T00:51:40.070Z,5.03
2023-04-21T00:56:41.126Z,4.99
2023-04-21T01:01:42.332Z,4.93
2023-04-21T01:06:43.570Z,4.80
2023-04-21T01:12:08.310Z,4.60
2023-04-21T01:17:09.928Z,4.40
2023-04-21T01:22:12.624Z,4.28
2023-04-21T01:27:18.942Z,4.24
2023-04-21T01:32:24.931Z,4.26
2023-04-21T01:37:30.626Z,4.29
2023-04-21T01:42:33.236Z,4.22
2023-04-21T01:47:34.800Z,4.16
2023-04-21T01:52:35.845Z,4.15
2023-04-21T01:57:37.030Z,4.18
2023-04-21T02:02:38.244Z,4.17
2023-04-21T02:07:39.570Z,4.06
2023-04-21T02:12:40.698Z,4.01
2023-04-21T02:17:44.167Z,4.02
2023-04-21T02:22:45.286Z,4.00
2023-04-21T02:27:46.399Z,4.02
2023-04-21T02:32:47.777Z,4.07
2023-04-21T02:37:48.961Z,4.12
2023-04-21T02:42:50.257Z,4.09
2023-04-21T02:47:51.360Z,4.04
2023-04-21T02:52:52.688Z,4.00
2023-04-21T02:57:53.723Z,3.95
2023-04-21T03:02:56.864Z,3.95
2023-04-21T03:07:58.629Z,3.93
2023-04-21T03:12:59.991Z,3.85
2023-04-21T03:18:01.154Z,3.73
2023-04-21T03:23:02.379Z,3.65
2023-04-21T03:28:03.605Z,3.64
2023-04-21T03:33:05.686Z,3.68
2023-04-21T03:38:07.295Z,3.68
2023-04-21T03:43:09.917Z,3.60
2023-04-21T03:48:12.213Z,3.51
2023-04-21T03:53:13.263Z,3.46
2023-04-21T03:58:15.446Z,3.48
2023-04-21T04:03:16.598Z,3.54
2023-04-21T04:08:18.117Z,3.62
2023-04-21T04:13:20.769Z,3.69
2023-04-21T04:18:21.866Z,3.73
2023-04-21T04:23:22.900Z,3.83
2023-04-21T04:28:23.993Z,3.94
2023-04-21T04:33:25.741Z,4.15
2023-04-21T04:38:27.968Z,4.35
2023-04-21T04:43:29.603Z,4.60
2023-04-21T04:48:31.027Z,4.77
2023-04-21T04:53:32.107Z,4.95
2023-04-21T04:58:33.069Z,5.20
2023-04-21T05:03:34.288Z,5.49
2023-04-21T05:08:35.985Z,5.78
2023-04-21T05:13:39.580Z,6.04
2023-04-21T05:18:41.250Z,6.33
2023-04-21T05:23:42.272Z,6.59
2023-04-21T05:28:43.272Z,6.83
2023-04-21T05:33:44.374Z,7.06
2023-04-21T05:38:45.634Z,7.29
2023-04-21T05:43:46.886Z,7.54
2023-04-21T05:48:47.876Z,7.78
2023-04-21T05:53:48.852Z,8.04
2023-04-21T05:58:49.902Z,8.31
2023-04-21T06:04:06.097Z,8.55
2023-04-21T06:09:07.825Z,8.79
2023-04-21T06:14:08.829Z,9.01
2023-04-21T06:19:09.798Z,9.26
2023-04-21T06:24:10.768Z,9.54
2023-04-21T06:29:11.780Z,9.79
2023-04-21T06:34:12.788Z,9.97
2023-04-21T06:39:14.186Z,10.12
2023-04-21T06:44:15.659Z,10.33
2023-04-21T06:49:16.802Z,10.60
2023-04-21T06:54:19.507Z,10.89
2023-04-21T06:59:20.921Z,11.14
2023-04-21T07:04:22.299Z,11.38
2023-04-21T07:09:23.365Z,11.62
2023-04-21T07:14:25.005Z,11.83
2023-04-21T07:19:26.282Z,12.05
2023-04-21T07:24:27.831Z,12.35
2023-04-21T07:29:29.034Z,12.63
2023-04-21T07:34:30.023Z,12.93
2023-04-21T07:39:31.079Z,13.29
2023-04-21T07:44:32.113Z,13.62
2023-04-21T07:49:33.258Z,13.88
2023-04-21T07:54:34.314Z,14.12
2023-04-21T07:59:35.515Z,14.29
2023-04-21T08:04:36.769Z,14.51
2023-04-21T08:09:38.029Z,14.71
2023-04-21T08:14:39.705Z,14.91
2023-04-21T08:19:40.718Z,15.15
2023-04-21T08:24:41.830Z,15.34
2023-04-21T08:29:42.826Z,15.47
2023-04-21T08:34:44.684Z,15.59
2023-04-21T08:39:46.008Z,15.78
2023-04-21T08:44:47.096Z,16.07
2023-04-21T08:49:50.447Z,16.37
2023-04-21T08:54:52.554Z,16.69
2023-04-21T08:59:53.811Z,17.00
2023-04-21T09:04:55.244Z,17.57
2023-04-21T09:09:57.087Z,18.06
2023-04-21T09:14:58.387Z,18.39
2023-04-21T09:20:16.098Z,18.43
2023-04-21T09:25:19.726Z,18.39
2023-04-21T09:30:21.972Z,18.29
2023-04-21T09:35:27.891Z,18.24
2023-04-21T09:40:30.171Z,18.29
2023-04-21T09:45:39.551Z,18.71
2023-04-21T09:51:22.082Z,19.13
2023-04-21T09:56:06.157Z,19.50
2023-04-21T10:01:08.827Z,19.68
2023-04-21T10:06:11.391Z,19.89
2023-04-21T10:11:13.160Z,19.88
2023-04-21T10:16:16.921Z,19.56
2023-04-21T10:21:21.265Z,19.35
2023-04-21T10:26:31.785Z,19.13
2023-04-21T10:31:35.444Z,19.14
2023-04-21T10:36:56.845Z,19.30
2023-04-21T10:42:22.301Z,19.62
2023-04-21T10:47:40.805Z,19.92
2023-04-21T10:52:54.119Z,20.08
2023-04-21T10:57:55.723Z,20.18
2023-04-21T11:03:02.677Z,20.10
2023-04-21T11:08:08.598Z,19.92
2023-04-21T11:13:10.865Z,19.74
2023-04-21T11:18:12.028Z,19.72
2023-04-21T11:23:18.163Z,19.80
2023-04-21T11:28:22.223Z,19.84
2023-04-21T11:33:23.238Z,19.90
2023-04-21T11:38:24.519Z,19.78
2023-04-21T11:43:25.614Z,19.49
2023-04-21T11:48:29.089Z,19.09
2023-04-21T11:53:30.220Z,18.99
2023-04-21T11:58:31.446Z,19.02
2023-04-21T12:03:32.725Z,19.07
2023-04-21T12:08:33.922Z,19.13
2023-04-21T12:13:35.493Z,19.11
2023-04-21T12:18:36.840Z,19.22
2023-04-21T12:23:38.525Z,19.27
2023-04-21T12:28:39.817Z,19.39
2023-04-21T12:33:41.205Z,19.36
2023-04-21T12:38:42.778Z,19.57
2023-04-21T12:43:43.747Z,19.88
2023-04-21T12:48:45.014Z,20.16
2023-04-21T12:53:46.138Z,20.32
2023-04-21T12:58:47.644Z,20.20
2023-04-21T13:03:48.987Z,19.98
2023-04-21T13:08:50.174Z,20.14
2023-04-21T13:13:51.339Z,20.30
2023-04-21T13:18:52.293Z,20.42
2023-04-21T13:23:53.379Z,20.40
2023-04-21T13:28:54.420Z,20.60
2023-04-21T13:33:56.111Z,20.63
2023-04-21T13:38:58.506Z,20.59
2023-04-21T13:43:59.577Z,20.11
2023-04-21T13:49:00.732Z,19.73
2023-04-21T13:54:01.875Z,19.58
2023-04-21T13:59:03.609Z,19.61
2023-04-21T14:04:04.850Z,19.76
2023-04-21T14:09:06.073Z,19.71
2023-04-21T14:14:10.064Z,19.43
2023-04-21T14:19:11.492Z,19.43
2023-04-21T14:24:12.543Z,19.77
2023-04-21T14:29:13.735Z,19.80
2023-04-21T14:34:14.745Z,19.77
2023-04-21T14:39:16.136Z,19.94
2023-04-21T14:44:18.252Z,20.14
2023-04-21T14:49:20.119Z,20.38
2023-04-21T14:54:21.101Z,20.44
2023-04-21T14:59:22.467Z,20.04
2023-04-21T15:04:23.718Z,19.47
2023-04-21T15:09:24.957Z,19.03
2023-04-21T15:14:26.202Z,18.69
2023-04-21T15:19:27.335Z,18.46
2023-04-21T15:24:28.353Z,19.00
2023-04-21T15:29:30.041Z,19.47
2023-04-21T15:34:31.308Z,20.01
2023-04-21T15:39:32.349Z,20.43
2023-04-21T15:44:33.525Z,20.54
2023-04-21T15:49:34.827Z,20.32
2023-04-21T15:54:36.786Z,19.80
2023-04-21T15:59:38.341Z,19.22
2023-04-21T16:04:39.721Z,18.74
2023-04-21T16:09:41.263Z,18.44
2023-04-21T16:14:54.398Z,18.21
2023-04-21T16:20:00.492Z,18.20
2023-04-21T16:25:01.872Z,18.31
2023-04-21T16:30:05.373Z,18.44
2023-04-21T16:35:08.613Z,18.50
2023-04-21T16:40:10.888Z,18.44
2023-04-21T16:45:12.024Z,18.29
2023-04-21T16:50:13.152Z,18.24
2023-04-21T16:55:14.689Z,18.16
2023-04-21T17:00:16.138Z,17.95
2023-04-21T17:05:17.266Z,17.71
2023-04-21T17:10:18.374Z,17.39
2023-04-21T17:15:19.322Z,17.17
2023-04-21T17:20:21.112Z,16.89
2023-04-21T17:25:22.177Z,16.57
2023-04-21T17:30:23.400Z,16.26
2023-04-21T17:35:24.596Z,15.95
2023-04-21T17:40:26.162Z,15.60
2023-04-21T17:45:27.266Z,15.25
2023-04-21T17:50:30.546Z,14.91
2023-04-21T17:55:31.723Z,14.59
2023-04-21T18:00:33.893Z,14.28
2023-04-21T18:05:34.978Z,14.03
2023-04-21T18:10:36.732Z,13.80
2023-04-21T18:15:37.743Z,13.62
2023-04-21T18:20:38.812Z,13.43
2023-04-21T18:25:42.927Z,13.21
2023-04-21T18:30:44.977Z,13.00
2023-04-21T18:35:46.651Z,12.76
2023-04-21T18:40:47.811Z,12.52
2023-04-21T18:45:48.823Z,12.26
2023-04-21T18:50:49.855Z,12.03
2023-04-21T18:55:50.999Z,11.82
2023-04-21T19:00:52.149Z,11.63
2023-04-21T19:05:53.205Z,11.41
2023-04-21T19:10:55.398Z,11.21
2023-04-21T19:15:56.369Z,11.00
2023-04-21T19:20:57.341Z,10.77
2023-04-21T19:26:03.922Z,10.56
2023-04-21T19:31:05.199Z,10.29
2023-04-21T19:36:06.296Z,10.13
2023-04-21T19:41:07.282Z,9.97
2023-04-21T19:46:09.528Z,9.78
2023-04-21T19:51:11.124Z,9.70
2023-04-21T19:56:12.125Z,9.57
2023-04-21T20:01:13.212Z,9.41
2023-04-21T20:06:14.395Z,9.30
2023-04-21T20:11:15.401Z,9.17
2023-04-21T20:16:19.284Z,9.05
2023-04-21T20:21:21.053Z,8.96
2023-04-21T20:26:22.380Z,8.74
2023-04-21T20:31:24.661Z,8.84
2023-04-21T20:36:26.779Z,8.83
2023-04-21T20:41:28.638Z,8.74
2023-04-21T20:46:30.375Z,8.62
2023-04-21T20:51:34.240Z,8.48
2023-04-21T20:56:35.237Z,8.32
2023-04-21T21:01:39.053Z,8.15
2023-04-21T21:06:40.226Z,7.99
2023-04-21T21:11:42.662Z,7.84
2023-04-21T21:16:44.091Z,7.67
2023-04-21T21:21:45.443Z,7.51
2023-04-21T21:26:46.690Z,7.33
2023-04-21T21:31:48.848Z,6.98
2023-04-21T21:36:50.178Z,6.97
2023-04-21T21:41:51.854Z,6.81
2023-04-21T21:47:12.981Z,6.65
2023-04-21T21:52:16.118Z,6.52
2023-04-21T21:57:17.387Z,6.41
2023-04-21T22:02:18.552Z,6.32
2023-04-21T22:07:19.748Z,6.24
2023-04-21T22:12:20.893Z,6.17
2023-04-21T22:17:22.107Z,6.09
2023-04-21T22:22:23.155Z,5.98
2023-04-21T22:27:24.205Z,5.86
2023-04-21T22:32:25.360Z,5.75
2023-04-21T22:37:27.318Z,5.70
2023-04-21T22:42:28.343Z,5.75
2023-04-21T22:47:29.420Z,5.84
2023-04-21T22:52:30.853Z,5.88
2023-04-21T22:57:32.232Z,5.86
2023-04-21T23:02:33.641Z,5.81
2023-04-21T23:07:36.027Z,5.71
2023-04-21T23:12:58.250Z,5.60
2023-04-21T23:17:59.624Z,5.51
2023-04-21T23:23:01.153Z,5.47
2023-04-21T23:28:02.385Z,5.51
2023-04-21T23:33:04.523Z,5.50
2023-04-21T23:38:05.715Z,5.52
2023-04-21T23:43:07.961Z,5.45
2023-04-21T23:48:11.127Z,5.34
2023-04-21T23:53:32.363Z,5.17
2023-04-21T23:58:33.520Z,5.01
